sensor_id;sensor_type;location;lat;lon;timestamp;P1;durP1;ratioP1;P2;durP2;ratioP2
28577;SDS011;15769;52.248;15.818;2022-11-20T00:03:06;56.00;;;22.42;;
28577;SDS011;15769;52.248;15.818;2022-11-20T00:08:09;55.75;;;24.70;;
28577;SDS011;15769;52.248;15.818;2022-11-20T00:13:11;50.13;;;22.27;;
28577;SDS011;15769;52.248;15.818;2022-11-20T00:18:14;50.17;;;22.52;;
28577;SDS011;15769;52.248;15.818;2022-11-20T00:23:16;56.95;;;23.95;;
28577;SDS011;15769;52.248;15.818;2022-11-20T00:28:20;48.10;;;20.85;;
28577;SDS011;15769;52.248;15.818;2022-11-20T00:33:41;65.10;;;29.55;;
28577;SDS011;15769;52.248;15.818;2022-11-20T00:38:45;51.90;;;24.45;;
28577;SDS011;15769;52.248;15.818;2022-11-20T00:43:48;35.50;;;17.02;;
28577;SDS011;15769;52.248;15.818;2022-11-20T00:49:00;59.55;;;24.50;;
28577;SDS011;15769;52.248;15.818;2022-11-20T00:54:05;44.35;;;19.52;;
28577;SDS011;15769;52.248;15.818;2022-11-20T00:59:08;47.42;;;20.60;;
28577;SDS011;15769;52.248;15.818;2022-11-20T01:04:13;36.20;;;16.92;;
28577;SDS011;15769;52.248;15.818;2022-11-20T01:09:26;30.60;;;16.10;;
28577;SDS011;15769;52.248;15.818;2022-11-20T01:14:53;23.88;;;14.02;;
28577;SDS011;15769;52.248;15.818;2022-11-20T01:20:19;25.30;;;14.68;;
28577;SDS011;15769;52.248;15.818;2022-11-20T01:25:40;30.27;;;17.10;;
28577;SDS011;15769;52.248;15.818;2022-11-20T01:31:11;28.88;;;15.70;;
28577;SDS011;15769;52.248;15.818;2022-11-20T01:36:32;33.03;;;17.73;;
28577;SDS011;15769;52.248;15.818;2022-11-20T01:42:43;27.75;;;16.67;;
28577;SDS011;15769;52.248;15.818;2022-11-20T01:53:50;29.70;;;17.10;;
28577;SDS011;15769;52.248;15.818;2022-11-20T01:58:56;28.80;;;17.55;;
28577;SDS011;15769;52.248;15.818;2022-11-20T02:04:01;29.50;;;17.73;;
28577;SDS011;15769;52.248;15.818;2022-11-20T02:09:15;35.63;;;20.75;;
28577;SDS011;15769;52.248;15.818;2022-11-20T02:14:45;33.85;;;18.88;;
28577;SDS011;15769;52.248;15.818;2022-11-20T02:25:44;33.13;;;18.25;;
28577;SDS011;15769;52.248;15.818;2022-11-20T02:30:48;27.75;;;15.15;;
28577;SDS011;15769;52.248;15.818;2022-11-20T02:35:51;28.35;;;16.23;;
28577;SDS011;15769;52.248;15.818;2022-11-20T02:40:55;24.70;;;15.25;;
28577;SDS011;15769;52.248;15.818;2022-11-20T02:46:19;26.83;;;15.85;;
28577;SDS011;15769;52.248;15.818;2022-11-20T02:51:24;29.27;;;16.63;;
28577;SDS011;15769;52.248;15.818;2022-11-20T02:56:27;27.80;;;16.02;;
28577;SDS011;15769;52.248;15.818;2022-11-20T03:01:30;26.20;;;15.70;;
28577;SDS011;15769;52.248;15.818;2022-11-20T03:06:52;31.05;;;17.20;;
28577;SDS011;15769;52.248;15.818;2022-11-20T03:12:22;33.15;;;17.95;;
28577;SDS011;15769;52.248;15.818;2022-11-20T03:17:31;40.47;;;20.77;;
28577;SDS011;15769;52.248;15.818;2022-11-20T03:22:34;38.33;;;19.47;;
28577;SDS011;15769;52.248;15.818;2022-11-20T03:27:37;24.88;;;13.38;;
28577;SDS011;15769;52.248;15.818;2022-11-20T03:32:52;27.42;;;14.15;;
28577;SDS011;15769;52.248;15.818;2022-11-20T03:37:59;25.17;;;14.57;;
28577;SDS011;15769;52.248;15.818;2022-11-20T03:48:07;25.95;;;14.55;;
28577;SDS011;15769;52.248;15.818;2022-11-20T03:53:17;27.65;;;16.20;;
28577;SDS011;15769;52.248;15.818;2022-11-20T03:58:20;31.17;;;17.07;;
28577;SDS011;15769;52.248;15.818;2022-11-20T04:03:22;28.35;;;15.65;;
28577;SDS011;15769;52.248;15.818;2022-11-20T04:08:30;27.05;;;15.30;;
28577;SDS011;15769;52.248;15.818;2022-11-20T04:13:33;30.30;;;17.27;;
28577;SDS011;15769;52.248;15.818;2022-11-20T04:18:46;29.50;;;17.42;;
28577;SDS011;15769;52.248;15.818;2022-11-20T04:24:11;31.60;;;16.67;;
28577;SDS011;15769;52.248;15.818;2022-11-20T04:29:14;27.42;;;16.27;;
28577;SDS011;15769;52.248;15.818;2022-11-20T04:34:17;29.98;;;17.25;;
28577;SDS011;15769;52.248;15.818;2022-11-20T04:39:19;57.87;;;25.53;;
28577;SDS011;15769;52.248;15.818;2022-11-20T04:44:31;116.10;;;40.78;;
28577;SDS011;15769;52.248;15.818;2022-11-20T04:49:36;75.55;;;28.45;;
28577;SDS011;15769;52.248;15.818;2022-11-20T04:54:45;87.43;;;31.88;;
28577;SDS011;15769;52.248;15.818;2022-11-20T04:59:47;84.28;;;30.35;;
28577;SDS011;15769;52.248;15.818;2022-11-20T05:04:50;67.07;;;27.05;;
28577;SDS011;15769;52.248;15.818;2022-11-20T05:09:55;73.35;;;28.92;;
28577;SDS011;15769;52.248;15.818;2022-11-20T05:15:13;46.72;;;21.83;;
28577;SDS011;15769;52.248;15.818;2022-11-20T05:20:27;33.28;;;17.42;;
28577;SDS011;15769;52.248;15.818;2022-11-20T05:26:14;33.53;;;16.30;;
28577;SDS011;15769;52.248;15.818;2022-11-20T05:32:05;35.38;;;16.98;;
28577;SDS011;15769;52.248;15.818;2022-11-20T05:37:09;63.03;;;24.38;;
28577;SDS011;15769;52.248;15.818;2022-11-20T05:42:12;55.88;;;24.25;;
28577;SDS011;15769;52.248;15.818;2022-11-20T05:47:33;48.40;;;22.52;;
28577;SDS011;15769;52.248;15.818;2022-11-20T05:52:39;39.92;;;19.80;;
28577;SDS011;15769;52.248;15.818;2022-11-20T05:58:05;44.75;;;21.63;;
28577;SDS011;15769;52.248;15.818;2022-11-20T06:03:08;43.70;;;21.13;;
28577;SDS011;15769;52.248;15.818;2022-11-20T06:08:38;38.90;;;20.73;;
28577;SDS011;15769;52.248;15.818;2022-11-20T06:14:21;42.40;;;20.02;;
28577;SDS011;15769;52.248;15.818;2022-11-20T06:19:26;42.78;;;20.98;;
28577;SDS011;15769;52.248;15.818;2022-11-20T06:24:30;50.53;;;23.88;;
28577;SDS011;15769;52.248;15.818;2022-11-20T06:29:56;40.38;;;19.90;;
28577;SDS011;15769;52.248;15.818;2022-11-20T06:35:00;38.88;;;21.13;;
28577;SDS011;15769;52.248;15.818;2022-11-20T06:40:03;32.45;;;17.75;;
28577;SDS011;15769;52.248;15.818;2022-11-20T06:45:05;31.33;;;17.70;;
28577;SDS011;15769;52.248;15.818;2022-11-20T06:50:09;33.78;;;18.35;;
28577;SDS011;15769;52.248;15.818;2022-11-20T06:55:12;36.22;;;19.52;;
28577;SDS011;15769;52.248;15.818;2022-11-20T07:00:15;50.60;;;25.48;;
28577;SDS011;15769;52.248;15.818;2022-11-20T07:06:32;49.63;;;23.88;;
28577;SDS011;15769;52.248;15.818;2022-11-20T07:11:37;36.05;;;18.55;;
28577;SDS011;15769;52.248;15.818;2022-11-20T07:16:57;174.05;;;68.70;;
28577;SDS011;15769;52.248;15.818;2022-11-20T07:22:01;78.22;;;35.35;;
28577;SDS011;15769;52.248;15.818;2022-11-20T07:27:29;52.53;;;23.90;;
28577;SDS011;15769;52.248;15.818;2022-11-20T07:32:33;64.32;;;26.25;;
28577;SDS011;15769;52.248;15.818;2022-11-20T07:38:13;70.57;;;27.98;;
28577;SDS011;15769;52.248;15.818;2022-11-20T07:43:21;60.47;;;25.42;;
28577;SDS011;15769;52.248;15.818;2022-11-20T07:48:24;66.32;;;28.63;;
28577;SDS011;15769;52.248;15.818;2022-11-20T07:53:26;60.77;;;24.80;;
28577;SDS011;15769;52.248;15.818;2022-11-20T07:58:29;58.35;;;25.40;;
28577;SDS011;15769;52.248;15.818;2022-11-20T08:03:32;46.58;;;21.63;;
28577;SDS011;15769;52.248;15.818;2022-11-20T08:08:35;57.20;;;24.80;;
28577;SDS011;15769;52.248;15.818;2022-11-20T08:13:44;54.72;;;24.40;;
28577;SDS011;15769;52.248;15.818;2022-11-20T08:19:06;50.55;;;22.90;;
28577;SDS011;15769;52.248;15.818;2022-11-20T08:24:09;44.38;;;22.73;;
28577;SDS011;15769;52.248;15.818;2022-11-20T08:29:12;39.47;;;20.25;;
28577;SDS011;15769;52.248;15.818;2022-11-20T08:34:14;48.75;;;23.92;;
28577;SDS011;15769;52.248;15.818;2022-11-20T08:39:20;46.83;;;22.23;;
28577;SDS011;15769;52.248;15.818;2022-11-20T08:44:23;47.07;;;22.83;;
28577;SDS011;15769;52.248;15.818;2022-11-20T08:49:25;52.25;;;25.27;;
28577;SDS011;15769;52.248;15.818;2022-11-20T08:54:27;47.47;;;25.27;;
28577;SDS011;15769;52.248;15.818;2022-11-20T08:59:33;47.20;;;23.67;;
28577;SDS011;15769;52.248;15.818;2022-11-20T09:04:55;45.63;;;23.38;;
28577;SDS011;15769;52.248;15.818;2022-11-20T09:09:58;64.05;;;31.17;;
28577;SDS011;15769;52.248;15.818;2022-11-20T09:15:20;47.97;;;24.42;;
28577;SDS011;15769;52.248;15.818;2022-11-20T09:20:23;43.38;;;22.73;;
28577;SDS011;15769;52.248;15.818;2022-11-20T09:25:26;51.78;;;27.48;;
28577;SDS011;15769;52.248;15.818;2022-11-20T09:30:29;46.20;;;24.53;;
28577;SDS011;15769;52.248;15.818;2022-11-20T09:35:33;48.50;;;24.40;;
28577;SDS011;15769;52.248;15.818;2022-11-20T09:40:37;42.03;;;22.40;;
28577;SDS011;15769;52.248;15.818;2022-11-20T09:45:58;44.63;;;22.27;;
28577;SDS011;15769;52.248;15.818;2022-11-20T09:56:29;45.08;;;23.40;;
28577;SDS011;15769;52.248;15.818;2022-11-20T10:01:32;53.17;;;26.93;;
28577;SDS011;15769;52.248;15.818;2022-11-20T10:06:37;52.95;;;28.20;;
28577;SDS011;15769;52.248;15.818;2022-11-20T10:12:13;42.22;;;22.20;;
28577;SDS011;15769;52.248;15.818;2022-11-20T10:17:31;35.60;;;20.08;;
28577;SDS011;15769;52.248;15.818;2022-11-20T10:23:01;41.58;;;22.40;;
28577;SDS011;15769;52.248;15.818;2022-11-20T10:33:27;66.78;;;31.70;;
28577;SDS011;15769;52.248;15.818;2022-11-20T10:38:58;88.07;;;33.10;;
28577;SDS011;15769;52.248;15.818;2022-11-20T10:44:05;78.28;;;29.00;;
28577;SDS011;15769;52.248;15.818;2022-11-20T10:49:15;56.80;;;25.60;;
28577;SDS011;15769;52.248;15.818;2022-11-20T10:54:30;57.75;;;27.05;;
28577;SDS011;15769;52.248;15.818;2022-11-20T11:04:41;74.78;;;33.70;;
28577;SDS011;15769;52.248;15.818;2022-11-20T11:09:50;58.17;;;27.42;;
28577;SDS011;15769;52.248;15.818;2022-11-20T11:14:55;52.75;;;23.88;;
28577;SDS011;15769;52.248;15.818;2022-11-20T11:25:25;80.00;;;35.92;;
28577;SDS011;15769;52.248;15.818;2022-11-20T11:30:28;69.43;;;34.80;;
28577;SDS011;15769;52.248;15.818;2022-11-20T11:35:38;76.65;;;37.97;;
28577;SDS011;15769;52.248;15.818;2022-11-20T11:40:54;88.72;;;44.72;;
28577;SDS011;15769;52.248;15.818;2022-11-20T11:45:59;69.45;;;34.35;;
28577;SDS011;15769;52.248;15.818;2022-11-20T11:51:01;55.70;;;28.80;;
28577;SDS011;15769;52.248;15.818;2022-11-20T12:01:30;51.58;;;27.25;;
28577;SDS011;15769;52.248;15.818;2022-11-20T12:06:44;48.22;;;26.08;;
28577;SDS011;15769;52.248;15.818;2022-11-20T12:12:00;48.47;;;24.75;;
28577;SDS011;15769;52.248;15.818;2022-11-20T12:17:10;64.32;;;32.17;;
28577;SDS011;15769;52.248;15.818;2022-11-20T12:22:47;146.45;;;54.67;;
28577;SDS011;15769;52.248;15.818;2022-11-20T12:36:06;83.05;;;39.50;;
28577;SDS011;15769;52.248;15.818;2022-11-20T12:42:03;82.07;;;41.70;;
28577;SDS011;15769;52.248;15.818;2022-11-20T12:52:53;68.82;;;37.65;;
28577;SDS011;15769;52.248;15.818;2022-11-20T13:03:34;69.22;;;37.50;;
28577;SDS011;15769;52.248;15.818;2022-11-20T13:08:53;67.47;;;35.00;;
28577;SDS011;15769;52.248;15.818;2022-11-20T13:19:02;95.65;;;45.47;;
28577;SDS011;15769;52.248;15.818;2022-11-20T13:29:26;132.63;;;54.13;;
28577;SDS011;15769;52.248;15.818;2022-11-20T13:34:29;131.10;;;47.22;;
28577;SDS011;15769;52.248;15.818;2022-11-20T13:39:35;129.03;;;50.90;;
28577;SDS011;15769;52.248;15.818;2022-11-20T13:44:43;105.93;;;44.30;;
28577;SDS011;15769;52.248;15.818;2022-11-20T13:49:53;84.00;;;37.03;;
28577;SDS011;15769;52.248;15.818;2022-11-20T14:00:43;114.53;;;47.30;;
28577;SDS011;15769;52.248;15.818;2022-11-20T14:05:52;112.70;;;48.92;;
28577;SDS011;15769;52.248;15.818;2022-11-20T14:11:20;104.70;;;51.17;;
28577;SDS011;15769;52.248;15.818;2022-11-20T14:16:24;112.43;;;51.30;;
28577;SDS011;15769;52.248;15.818;2022-11-20T14:26:31;117.18;;;57.05;;
28577;SDS011;15769;52.248;15.818;2022-11-20T14:31:34;104.32;;;50.03;;
28577;SDS011;15769;52.248;15.818;2022-11-20T14:36:37;149.35;;;63.95;;
28577;SDS011;15769;52.248;15.818;2022-11-20T14:41:49;158.05;;;63.42;;
28577;SDS011;15769;52.248;15.818;2022-11-20T14:46:54;138.32;;;62.28;;
28577;SDS011;15769;52.248;15.818;2022-11-20T14:52:00;133.55;;;56.60;;
28577;SDS011;15769;52.248;15.818;2022-11-20T14:57:05;92.93;;;43.97;;
28577;SDS011;15769;52.248;15.818;2022-11-20T15:02:08;108.97;;;48.22;;
28577;SDS011;15769;52.248;15.818;2022-11-20T15:07:24;109.05;;;48.85;;
28577;SDS011;15769;52.248;15.818;2022-11-20T15:12:28;153.07;;;60.75;;
28577;SDS011;15769;52.248;15.818;2022-11-20T15:17:32;170.85;;;67.25;;
28577;SDS011;15769;52.248;15.818;2022-11-20T15:22:37;200.82;;;78.35;;
28577;SDS011;15769;52.248;15.818;2022-11-20T15:27:42;227.95;;;84.90;;
28577;SDS011;15769;52.248;15.818;2022-11-20T15:32:46;172.48;;;79.93;;
28577;SDS011;15769;52.248;15.818;2022-11-20T15:37:49;236.93;;;96.65;;
28577;SDS011;15769;52.248;15.818;2022-11-20T15:42:54;148.00;;;66.03;;
28577;SDS011;15769;52.248;15.818;2022-11-20T15:48:14;128.98;;;62.58;;
28577;SDS011;15769;52.248;15.818;2022-11-20T15:53:18;151.43;;;72.13;;
28577;SDS011;15769;52.248;15.818;2022-11-20T15:58:21;153.27;;;72.63;;
28577;SDS011;15769;52.248;15.818;2022-11-20T16:03:24;167.15;;;85.97;;
28577;SDS011;15769;52.248;15.818;2022-11-20T16:08:27;195.43;;;85.70;;
28577;SDS011;15769;52.248;15.818;2022-11-20T16:13:30;264.20;;;113.95;;
28577;SDS011;15769;52.248;15.818;2022-11-20T16:18:52;291.37;;;123.00;;
28577;SDS011;15769;52.248;15.818;2022-11-20T16:23:55;212.98;;;93.80;;
28577;SDS011;15769;52.248;15.818;2022-11-20T16:29:00;161.80;;;77.68;;
28577;SDS011;15769;52.248;15.818;2022-11-20T16:34:04;62.53;;;30.98;;
28577;SDS011;15769;52.248;15.818;2022-11-20T16:39:25;74.32;;;39.45;;
28577;SDS011;15769;52.248;15.818;2022-11-20T16:44:27;114.53;;;57.47;;
28577;SDS011;15769;52.248;15.818;2022-11-20T16:49:31;127.82;;;64.10;;
28577;SDS011;15769;52.248;15.818;2022-11-20T16:54:40;127.03;;;62.10;;
28577;SDS011;15769;52.248;15.818;2022-11-20T17:00:44;123.10;;;59.47;;
28577;SDS011;15769;52.248;15.818;2022-11-20T17:05:52;101.43;;;48.65;;
28577;SDS011;15769;52.248;15.818;2022-11-20T17:11:10;89.68;;;44.20;;
28577;SDS011;15769;52.248;15.818;2022-11-20T17:16:24;99.17;;;48.70;;
28577;SDS011;15769;52.248;15.818;2022-11-20T17:21:40;80.70;;;40.15;;
28577;SDS011;15769;52.248;15.818;2022-11-20T17:26:48;75.57;;;36.55;;
28577;SDS011;15769;52.248;15.818;2022-11-20T17:32:24;78.30;;;38.88;;
28577;SDS011;15769;52.248;15.818;2022-11-20T17:37:27;95.55;;;45.55;;
28577;SDS011;15769;52.248;15.818;2022-11-20T17:42:36;92.28;;;42.30;;
28577;SDS011;15769;52.248;15.818;2022-11-20T17:47:39;83.43;;;39.45;;
28577;SDS011;15769;52.248;15.818;2022-11-20T17:52:41;67.60;;;32.03;;
28577;SDS011;15769;52.248;15.818;2022-11-20T17:57:48;74.13;;;35.75;;
28577;SDS011;15769;52.248;15.818;2022-11-20T18:02:54;98.70;;;38.38;;
28577;SDS011;15769;52.248;15.818;2022-11-20T18:07:57;89.55;;;38.72;;
28577;SDS011;15769;52.248;15.818;2022-11-20T18:13:00;108.53;;;41.40;;
28577;SDS011;15769;52.248;15.818;2022-11-20T18:18:02;84.60;;;36.95;;
28577;SDS011;15769;52.248;15.818;2022-11-20T18:23:06;85.55;;;41.60;;
28577;SDS011;15769;52.248;15.818;2022-11-20T18:28:08;67.70;;;33.40;;
28577;SDS011;15769;52.248;15.818;2022-11-20T18:33:10;102.97;;;43.47;;
28577;SDS011;15769;52.248;15.818;2022-11-20T18:38:13;86.20;;;39.45;;
28577;SDS011;15769;52.248;15.818;2022-11-20T18:43:18;99.15;;;41.47;;
28577;SDS011;15769;52.248;15.818;2022-11-20T18:48:39;104.28;;;38.83;;
28577;SDS011;15769;52.248;15.818;2022-11-20T18:53:45;127.18;;;45.67;;
28577;SDS011;15769;52.248;15.818;2022-11-20T18:58:57;132.73;;;41.42;;
28577;SDS011;15769;52.248;15.818;2022-11-20T19:04:16;127.53;;;42.15;;
28577;SDS011;15769;52.248;15.818;2022-11-20T19:09:21;105.88;;;36.30;;
28577;SDS011;15769;52.248;15.818;2022-11-20T19:14:27;100.35;;;43.13;;
28577;SDS011;15769;52.248;15.818;2022-11-20T19:19:30;83.15;;;40.53;;
28577;SDS011;15769;52.248;15.818;2022-11-20T19:24:35;76.60;;;33.85;;
28577;SDS011;15769;52.248;15.818;2022-11-20T19:29:38;87.40;;;36.35;;
28577;SDS011;15769;52.248;15.818;2022-11-20T19:34:40;68.73;;;31.83;;
28577;SDS011;15769;52.248;15.818;2022-11-20T19:39:43;77.60;;;35.85;;
28577;SDS011;15769;52.248;15.818;2022-11-20T19:44:46;80.13;;;36.47;;
28577;SDS011;15769;52.248;15.818;2022-11-20T19:49:49;79.72;;;35.17;;
28577;SDS011;15769;52.248;15.818;2022-11-20T19:54:54;83.70;;;38.78;;
28577;SDS011;15769;52.248;15.818;2022-11-20T19:59:58;65.15;;;30.58;;
28577;SDS011;15769;52.248;15.818;2022-11-20T20:05:00;57.80;;;28.80;;
28577;SDS011;15769;52.248;15.818;2022-11-20T20:10:03;55.05;;;26.83;;
28577;SDS011;15769;52.248;15.818;2022-11-20T20:15:53;117.78;;;46.55;;
28577;SDS011;15769;52.248;15.818;2022-11-20T20:21:00;163.85;;;58.47;;
28577;SDS011;15769;52.248;15.818;2022-11-20T20:26:06;106.18;;;41.50;;
28577;SDS011;15769;52.248;15.818;2022-11-20T20:31:11;87.95;;;37.00;;
28577;SDS011;15769;52.248;15.818;2022-11-20T20:36:18;100.90;;;38.42;;
28577;SDS011;15769;52.248;15.818;2022-11-20T20:41:22;100.78;;;38.58;;
28577;SDS011;15769;52.248;15.818;2022-11-20T20:46:26;117.95;;;44.35;;
28577;SDS011;15769;52.248;15.818;2022-11-20T20:51:29;190.98;;;67.55;;
28577;SDS011;15769;52.248;15.818;2022-11-20T20:56:31;147.23;;;51.42;;
28577;SDS011;15769;52.248;15.818;2022-11-20T21:01:34;102.50;;;39.88;;
28577;SDS011;15769;52.248;15.818;2022-11-20T21:06:36;93.93;;;39.60;;
28577;SDS011;15769;52.248;15.818;2022-11-20T21:11:38;85.53;;;38.47;;
28577;SDS011;15769;52.248;15.818;2022-11-20T21:16:41;86.78;;;37.85;;
28577;SDS011;15769;52.248;15.818;2022-11-20T21:21:45;118.85;;;50.40;;
28577;SDS011;15769;52.248;15.818;2022-11-20T21:27:05;111.38;;;50.63;;
28577;SDS011;15769;52.248;15.818;2022-11-20T21:32:08;114.67;;;51.60;;
28577;SDS011;15769;52.248;15.818;2022-11-20T21:37:10;116.32;;;51.88;;
28577;SDS011;15769;52.248;15.818;2022-11-20T21:42:13;93.53;;;39.15;;
28577;SDS011;15769;52.248;15.818;2022-11-20T21:47:15;71.53;;;31.67;;
28577;SDS011;15769;52.248;15.818;2022-11-20T21:52:18;83.93;;;36.92;;
28577;SDS011;15769;52.248;15.818;2022-11-20T21:57:20;98.57;;;43.97;;
28577;SDS011;15769;52.248;15.818;2022-11-20T22:02:22;116.07;;;49.60;;
28577;SDS011;15769;52.248;15.818;2022-11-20T22:07:25;92.40;;;40.92;;
28577;SDS011;15769;52.248;15.818;2022-11-20T22:12:28;108.10;;;44.70;;
28577;SDS011;15769;52.248;15.818;2022-11-20T22:17:30;97.85;;;41.60;;
28577;SDS011;15769;52.248;15.818;2022-11-20T22:22:51;98.03;;;41.72;;
28577;SDS011;15769;52.248;15.818;2022-11-20T22:27:54;106.70;;;44.50;;
28577;SDS011;15769;52.248;15.818;2022-11-20T22:32:56;86.50;;;39.40;;
28577;SDS011;15769;52.248;15.818;2022-11-20T22:37:59;71.53;;;32.10;;
28577;SDS011;15769;52.248;15.818;2022-11-20T22:43:04;77.18;;;35.63;;
28577;SDS011;15769;52.248;15.818;2022-11-20T22:48:08;125.75;;;47.15;;
28577;SDS011;15769;52.248;15.818;2022-11-20T22:53:10;106.88;;;41.40;;
28577;SDS011;15769;52.248;15.818;2022-11-20T22:58:13;83.57;;;34.08;;
28577;SDS011;15769;52.248;15.818;2022-11-20T23:03:15;91.45;;;36.58;;
28577;SDS011;15769;52.248;15.818;2022-11-20T23:08:18;67.97;;;26.13;;
28577;SDS011;15769;52.248;15.818;2022-11-20T23:13:20;85.25;;;36.03;;
28577;SDS011;15769;52.248;15.818;2022-11-20T23:18:22;180.15;;;62.38;;
28577;SDS011;15769;52.248;15.818;2022-11-20T23:23:25;217.68;;;77.55;;
28577;SDS011;15769;52.248;15.818;2022-11-20T23:28:27;266.80;;;85.78;;
28577;SDS011;15769;52.248;15.818;2022-11-20T23:33:30;238.73;;;77.50;;
28577;SDS011;15769;52.248;15.818;2022-11-20T23:38:33;251.32;;;76.13;;
28577;SDS011;15769;52.248;15.818;2022-11-20T23:43:35;270.15;;;76.32;;
28577;SDS011;15769;52.248;15.818;2022-11-20T23:48:38;172.52;;;55.30;;
28577;SDS011;15769;52.248;15.818;2022-11-20T23:53:41;108.60;;;41.87;;
28577;SDS011;15769;52.248;15.818;2022-11-20T23:58:44;87.82;;;34.83;;
